BAW6KC EGKK-LFPG
Flight info
| Callsign | BAW6KC |
|---|---|
| Flight time | N/A |
| Altitude | 25000 |
| Route | BOGNA1X BOGNA DCT HARDY/N0420F230 M605 XIDIL UM605 BIBAX BIBA9W |
| Aircraft | A320/M-SDE3FGHIRWY/LB1 |
Departure
| Time | 2026-04-15 12:04 |
|---|---|
| Airport | London Gatwick Airport (EGKK) |
Arrival
| Time | N/A |
|---|---|
| Airport | Charles de Gaulle International Airport (LFPG) |
| Time | Latitude | Longitude | Altitude | Speed | Heading |
|---|---|---|---|---|---|
| 2026-04-15 11:49 | 51.15470 | -0.17017 | 203 ft | 0 kts | 347° |
| 2026-04-15 11:57 | 51.15469 | -0.17016 | 203 ft | 0 kts | 347° |
| 2026-04-15 11:57 | 51.15463 | -0.17014 | 236 ft | 2 kts | 347° |
| 2026-04-15 11:58 | 51.15447 | -0.17008 | 235 ft | 2 kts | 347° |
| 2026-04-15 11:58 | 51.15432 | -0.16999 | 207 ft | 2 kts | 303° |
| 2026-04-15 11:58 | 51.15427 | -0.16983 | 208 ft | 0 kts | 254° |
| 2026-04-15 12:01 | 51.15425 | -0.17004 | 209 ft | 5 kts | 260° |
| 2026-04-15 12:01 | 51.15412 | -0.17102 | 208 ft | 13 kts | 257° |
| 2026-04-15 12:01 | 51.15365 | -0.17239 | 210 ft | 15 kts | 203° |
| 2026-04-15 12:01 | 51.15251 | -0.17175 | 209 ft | 21 kts | 146° |
| 2026-04-15 12:02 | 51.15207 | -0.17029 | 209 ft | 8 kts | 73° |
| 2026-04-15 12:02 | 51.15218 | -0.16921 | 211 ft | 0 kts | 81° |
| 2026-04-15 12:02 | 51.15224 | -0.16870 | 201 ft | 10 kts | 81° |
| 2026-04-15 12:03 | 51.15157 | -0.16789 | 205 ft | 18 kts | 184° |
| 2026-04-15 12:03 | 51.15094 | -0.16985 | 209 ft | 28 kts | 256° |
| 2026-04-15 12:03 | 51.15002 | -0.17640 | 205 ft | 92 kts | 258° |
| 2026-04-15 12:03 | 51.14823 | -0.18911 | 207 ft | 141 kts | 257° |
| 2026-04-15 12:04 | 51.14606 | -0.20541 | 599 ft | 150 kts | 252° |
| 2026-04-15 12:04 | 51.14392 | -0.22154 | 1305 ft | 148 kts | 249° |
| 2026-04-15 12:04 | 51.14159 | -0.23806 | 1781 ft | 162 kts | 252° |
| 2026-04-15 12:04 | 51.13893 | -0.25654 | 2076 ft | 186 kts | 252° |
| 2026-04-15 12:05 | 51.13591 | -0.27765 | 2614 ft | 200 kts | 252° |
| 2026-04-15 12:05 | 51.13288 | -0.29941 | 3464 ft | 203 kts | 252° |
| 2026-04-15 12:05 | 51.12983 | -0.32151 | 4285 ft | 207 kts | 251° |
| 2026-04-15 12:05 | 51.12667 | -0.34418 | 4970 ft | 214 kts | 251° |
| 2026-04-15 12:06 | 51.12346 | -0.36726 | 5828 ft | 214 kts | 251° |
| 2026-04-15 12:06 | 51.12015 | -0.39064 | 6647 ft | 218 kts | 249° |
| 2026-04-15 12:06 | 51.11288 | -0.41101 | 7396 ft | 213 kts | 218° |
| 2026-04-15 12:06 | 51.09946 | -0.42096 | 7982 ft | 226 kts | 187° |
| 2026-04-15 12:07 | 51.08309 | -0.42000 | 8398 ft | 248 kts | 179° |
| 2026-04-15 12:07 | 51.06557 | -0.41761 | 9103 ft | 256 kts | 178° |
| 2026-04-15 12:07 | 51.04835 | -0.41510 | 9889 ft | 260 kts | 179° |
| 2026-04-15 12:07 | 51.03024 | -0.41184 | 10639 ft | 266 kts | 172° |
| 2026-04-15 12:08 | 51.01314 | -0.39950 | 11381 ft | 280 kts | 148° |
| 2026-04-15 12:08 | 50.99865 | -0.37812 | 11900 ft | 287 kts | 142° |
| 2026-04-15 12:08 | 50.98457 | -0.35566 | 12051 ft | 286 kts | 141° |
| 2026-04-15 12:08 | 50.97068 | -0.33305 | 12082 ft | 286 kts | 141° |
| 2026-04-15 12:09 | 50.95682 | -0.31045 | 12086 ft | 286 kts | 141° |
| 2026-04-15 12:09 | 50.94297 | -0.28791 | 12091 ft | 285 kts | 141° |
| 2026-04-15 12:09 | 50.92909 | -0.26544 | 12083 ft | 285 kts | 141° |
| 2026-04-15 12:09 | 50.91535 | -0.24334 | 12091 ft | 285 kts | 142° |
| 2026-04-15 12:10 | 50.90137 | -0.22099 | 12081 ft | 285 kts | 142° |
| 2026-04-15 12:10 | 50.88728 | -0.19857 | 12089 ft | 297 kts | 142° |
| 2026-04-15 12:10 | 50.87182 | -0.17432 | 12131 ft | 327 kts | 141° |
| 2026-04-15 12:10 | 50.85514 | -0.14812 | 12342 ft | 347 kts | 141° |
| 2026-04-15 12:11 | 50.83783 | -0.12073 | 12868 ft | 355 kts | 141° |
| 2026-04-15 12:11 | 50.82033 | -0.09282 | 13556 ft | 359 kts | 141° |
| 2026-04-15 12:11 | 50.80273 | -0.06465 | 14242 ft | 362 kts | 141° |
| 2026-04-15 12:11 | 50.78496 | -0.03626 | 14849 ft | 365 kts | 141° |
| 2026-04-15 12:12 | 50.76701 | -0.00765 | 15376 ft | 368 kts | 141° |
| 2026-04-15 12:12 | 50.74884 | 0.02121 | 15874 ft | 373 kts | 141° |
| 2026-04-15 12:12 | 50.73045 | 0.05037 | 16398 ft | 377 kts | 141° |
| 2026-04-15 12:12 | 50.71184 | 0.07981 | 16947 ft | 380 kts | 141° |
| 2026-04-15 12:13 | 50.69335 | 0.10897 | 17494 ft | 383 kts | 141° |
| 2026-04-15 12:13 | 50.67437 | 0.13885 | 18045 ft | 387 kts | 141° |
| 2026-04-15 12:13 | 50.65525 | 0.16889 | 18575 ft | 390 kts | 141° |
| 2026-04-15 12:13 | 50.63596 | 0.19917 | 19075 ft | 393 kts | 141° |
| 2026-04-15 12:14 | 50.61647 | 0.22967 | 19582 ft | 396 kts | 141° |
| 2026-04-15 12:14 | 50.59687 | 0.26028 | 20107 ft | 398 kts | 141° |
| 2026-04-15 12:14 | 50.57717 | 0.29109 | 20611 ft | 401 kts | 141° |